createdAt,value
2023-05-08T00:02:12.123Z,16.37
2023-05-08T00:04:38.696Z,16.26
2023-05-08T00:07:05.262Z,16.31
2023-05-08T00:09:31.766Z,16.24
2023-05-08T00:11:58.282Z,16.27
2023-05-08T00:14:24.750Z,16.15
2023-05-08T00:16:51.353Z,16.16
2023-05-08T00:19:17.995Z,16.15
2023-05-08T00:21:44.575Z,16.10
2023-05-08T00:24:11.159Z,16.04
2023-05-08T00:26:37.762Z,16.11
2023-05-08T00:29:06.501Z,16.28
2023-05-08T00:31:34.024Z,16.41
2023-05-08T00:34:00.576Z,16.48
2023-05-08T00:36:27.589Z,16.48
2023-05-08T00:38:54.126Z,16.48
2023-05-08T00:41:20.610Z,16.42
2023-05-08T00:43:47.221Z,16.52
2023-05-08T00:46:14.055Z,16.36
2023-05-08T00:48:41.047Z,16.37
2023-05-08T00:51:09.575Z,16.26
2023-05-08T00:53:39.199Z,16.24
2023-05-08T00:56:06.772Z,16.24
2023-05-08T00:58:33.691Z,16.20
2023-05-08T01:01:00.906Z,16.25
2023-05-08T01:03:28.665Z,16.36
2023-05-08T01:05:55.355Z,16.20
2023-05-08T01:08:21.987Z,16.25
2023-05-08T01:11:13.050Z,16.19
2023-05-08T01:13:59.802Z,16.09
2023-05-08T01:16:38.636Z,16.11
2023-05-08T01:19:23.624Z,16.20
2023-05-08T01:22:00.612Z,16.24
2023-05-08T01:24:47.433Z,16.16
2023-05-08T01:27:55.108Z,16.08
2023-05-08T01:30:33.470Z,16.20
2023-05-08T01:33:10.955Z,16.22
2023-05-08T01:35:45.512Z,16.16
2023-05-08T01:38:34.849Z,16.19
2023-05-08T01:41:10.589Z,16.07
2023-05-08T01:43:46.209Z,16.14
2023-05-08T01:46:18.746Z,16.12
2023-05-08T01:48:59.215Z,16.25
2023-05-08T01:51:28.775Z,16.34
2023-05-08T01:54:04.619Z,16.30
2023-05-08T01:56:32.504Z,16.23
2023-05-08T01:59:01.525Z,16.16
2023-05-08T02:01:30.046Z,16.24
2023-05-08T02:03:58.069Z,16.07
2023-05-08T02:06:27.104Z,16.06
2023-05-08T02:08:56.182Z,16.14
2023-05-08T02:11:24.747Z,16.12
2023-05-08T02:13:52.705Z,16.11
2023-05-08T02:16:20.584Z,16.00
2023-05-08T02:18:52.260Z,15.94
2023-05-08T02:21:19.697Z,15.87
2023-05-08T02:23:48.350Z,15.88
2023-05-08T02:26:16.318Z,16.07
2023-05-08T02:28:43.424Z,16.07
2023-05-08T02:31:12.110Z,16.24
2023-05-08T02:33:41.604Z,16.13
2023-05-08T02:36:10.877Z,16.06
2023-05-08T02:38:39.735Z,16.11
2023-05-08T02:41:07.962Z,16.17
2023-05-08T02:43:35.294Z,16.08
2023-05-08T02:46:14.585Z,16.09
2023-05-08T02:48:53.094Z,16.03
2023-05-08T02:52:06.325Z,16.03
2023-05-08T02:54:38.150Z,15.96
2023-05-08T02:57:49.043Z,16.04
2023-05-08T03:00:20.682Z,16.06
2023-05-08T03:02:54.670Z,16.11
2023-05-08T03:05:28.929Z,16.08
2023-05-08T03:07:59.944Z,16.00
2023-05-08T03:10:31.879Z,15.98
2023-05-08T03:13:02.728Z,15.92
2023-05-08T03:15:45.094Z,15.98
2023-05-08T03:18:16.408Z,16.10
2023-05-08T03:20:46.402Z,16.08
2023-05-08T03:23:14.772Z,16.09
2023-05-08T03:25:43.300Z,15.98
2023-05-08T03:28:10.663Z,15.96
2023-05-08T03:30:38.374Z,16.10
2023-05-08T03:33:07.456Z,15.97
2023-05-08T03:35:38.133Z,15.85
2023-05-08T03:38:06.694Z,15.84
2023-05-08T03:40:42.564Z,15.86
2023-05-08T03:43:11.235Z,15.82
2023-05-08T03:45:39.633Z,15.89
2023-05-08T03:48:07.682Z,15.87
2023-05-08T03:50:37.968Z,15.97
2023-05-08T03:53:04.770Z,16.07
2023-05-08T03:55:32.236Z,16.15
2023-05-08T03:58:07.678Z,16.11
2023-05-08T04:00:59.449Z,16.00
2023-05-08T04:03:47.718Z,15.99
2023-05-08T04:06:30.726Z,15.93
2023-05-08T04:09:12.385Z,15.98
2023-05-08T04:11:49.863Z,16.07
2023-05-08T04:14:20.240Z,16.09
2023-05-08T04:17:00.189Z,16.03
2023-05-08T04:19:33.302Z,15.98
2023-05-08T04:22:05.178Z,16.00
2023-05-08T04:24:35.235Z,16.19
2023-05-08T04:27:03.302Z,16.18
2023-05-08T04:29:31.168Z,16.30
2023-05-08T04:31:59.184Z,16.21
2023-05-08T04:34:26.089Z,16.15
2023-05-08T04:36:52.704Z,15.98
2023-05-08T04:39:20.083Z,16.00
2023-05-08T04:41:48.081Z,15.92
2023-05-08T04:44:14.812Z,15.87
2023-05-08T04:46:41.341Z,15.90
2023-05-08T04:49:07.958Z,15.93
2023-05-08T04:51:34.546Z,15.89
2023-05-08T04:54:01.156Z,15.84
2023-05-08T04:56:27.683Z,15.83
2023-05-08T04:58:54.207Z,15.79
2023-05-08T05:01:20.777Z,15.85
2023-05-08T05:03:47.393Z,15.85
2023-05-08T05:06:13.907Z,15.81
2023-05-08T05:08:40.471Z,15.90
2023-05-08T05:11:06.942Z,16.05
2023-05-08T05:13:33.449Z,16.04
2023-05-08T05:16:00.376Z,16.05
2023-05-08T05:18:26.854Z,16.09
2023-05-08T05:20:53.418Z,16.10
2023-05-08T05:23:19.905Z,16.12
2023-05-08T05:25:46.489Z,16.08
2023-05-08T05:28:13.013Z,16.14
2023-05-08T05:30:39.520Z,16.15
2023-05-08T05:33:06.004Z,16.23
2023-05-08T05:35:32.489Z,16.39
2023-05-08T05:37:58.977Z,16.50
2023-05-08T05:40:25.476Z,16.65
2023-05-08T05:42:52.261Z,16.79
2023-05-08T05:45:18.773Z,16.91
2023-05-08T05:47:49.994Z,16.91
2023-05-08T05:50:18.593Z,16.70
2023-05-08T05:52:45.671Z,16.64
2023-05-08T05:55:12.645Z,16.54
2023-05-08T05:57:39.320Z,16.53
2023-05-08T06:00:08.269Z,16.57
2023-05-08T06:02:36.670Z,16.48
2023-05-08T06:05:03.966Z,16.60
2023-05-08T06:07:30.646Z,16.71
2023-05-08T06:09:57.117Z,16.90
2023-05-08T06:12:23.634Z,17.01
2023-05-08T06:14:52.146Z,17.19
2023-05-08T06:17:19.152Z,17.37
2023-05-08T06:19:50.477Z,17.19
2023-05-08T06:22:18.465Z,17.37
2023-05-08T06:24:45.285Z,17.45
2023-05-08T06:27:12.185Z,17.54
2023-05-08T06:29:38.742Z,17.62
2023-05-08T06:32:05.649Z,17.57
2023-05-08T06:34:32.209Z,17.55
2023-05-08T06:36:58.805Z,17.50
2023-05-08T06:39:25.234Z,17.47
2023-05-08T06:41:51.727Z,17.37
2023-05-08T06:44:18.220Z,17.34
2023-05-08T06:46:44.734Z,17.30
2023-05-08T06:49:11.291Z,17.31
2023-05-08T06:51:38.311Z,17.24
2023-05-08T06:54:08.146Z,17.17
2023-05-08T06:56:35.367Z,17.20
2023-05-08T06:59:08.234Z,17.19
2023-05-08T07:01:35.237Z,17.06
2023-05-08T07:04:01.927Z,17.03
2023-05-08T07:06:28.669Z,17.03
2023-05-08T07:08:55.120Z,17.13
2023-05-08T07:11:21.991Z,17.15
2023-05-08T07:13:48.735Z,17.14
2023-05-08T07:16:16.200Z,17.31
2023-05-08T07:18:43.781Z,17.30
2023-05-08T07:21:10.816Z,17.14
2023-05-08T07:23:37.261Z,17.32
2023-05-08T07:26:03.769Z,17.27
2023-05-08T07:28:30.363Z,17.30
2023-05-08T07:30:57.333Z,17.39
2023-05-08T07:33:24.718Z,17.29
2023-05-08T07:35:51.240Z,17.40
2023-05-08T07:38:18.128Z,17.36
2023-05-08T07:40:44.634Z,17.49
2023-05-08T07:43:11.248Z,17.45
2023-05-08T07:45:37.735Z,17.57
2023-05-08T07:48:04.500Z,17.63
2023-05-08T07:50:31.444Z,17.84
2023-05-08T07:52:57.930Z,17.95
2023-05-08T07:55:24.473Z,17.97
2023-05-08T07:57:51.104Z,17.87
2023-05-08T08:00:18.197Z,17.96
2023-05-08T08:02:45.402Z,17.96
2023-05-08T08:05:12.739Z,18.02
2023-05-08T08:07:39.626Z,18.14
2023-05-08T08:10:07.422Z,18.29
2023-05-08T08:12:33.965Z,18.27
2023-05-08T08:15:00.484Z,18.33
2023-05-08T08:17:28.653Z,18.39
2023-05-08T08:19:55.893Z,18.33
2023-05-08T08:22:22.589Z,18.24
2023-05-08T08:24:49.117Z,18.13
2023-05-08T08:27:15.869Z,18.13
2023-05-08T08:29:42.642Z,18.36
2023-05-08T08:32:09.756Z,18.31
2023-05-08T08:34:36.285Z,18.11
2023-05-08T08:37:04.824Z,18.16
2023-05-08T08:39:36.971Z,18.35
2023-05-08T08:42:03.890Z,18.37
2023-05-08T08:44:30.357Z,18.19
2023-05-08T08:46:59.264Z,18.13
2023-05-08T08:49:35.611Z,18.03
2023-05-08T08:52:42.578Z,17.86
2023-05-08T08:55:15.118Z,17.69
2023-05-08T08:57:52.282Z,17.83
2023-05-08T09:00:21.187Z,17.55
2023-05-08T09:02:48.237Z,17.64
2023-05-08T09:05:15.709Z,17.63
2023-05-08T09:07:43.868Z,17.64
2023-05-08T09:10:15.368Z,17.60
2023-05-08T09:12:42.570Z,17.70
2023-05-08T09:15:09.319Z,17.61
2023-05-08T09:17:35.886Z,17.76
2023-05-08T09:20:02.651Z,17.76
2023-05-08T09:22:29.717Z,17.77
2023-05-08T09:24:58.567Z,17.75
2023-05-08T09:27:27.025Z,17.84
2023-05-08T09:30:07.395Z,17.88
2023-05-08T09:32:36.341Z,17.72
2023-05-08T09:35:04.149Z,17.83
2023-05-08T09:37:30.848Z,18.01
2023-05-08T09:40:13.113Z,18.12
2023-05-08T09:42:39.752Z,18.21
2023-05-08T09:45:06.997Z,18.21
2023-05-08T09:47:37.341Z,18.38
2023-05-08T09:50:10.864Z,18.41
2023-05-08T09:52:39.342Z,18.45
2023-05-08T09:55:08.523Z,18.46
2023-05-08T09:57:39.125Z,18.45
2023-05-08T10:00:09.883Z,18.33
2023-05-08T10:02:38.046Z,18.49
2023-05-08T10:05:08.391Z,18.58
2023-05-08T10:07:37.276Z,18.61
2023-05-08T10:10:05.904Z,18.86
2023-05-08T10:12:33.589Z,18.88
2023-05-08T10:15:00.168Z,19.02
2023-05-08T10:17:38.046Z,19.05
2023-05-08T10:20:07.671Z,19.09
2023-05-08T10:22:38.238Z,19.19
2023-05-08T10:25:10.710Z,19.29
2023-05-08T10:27:58.917Z,19.33
2023-05-08T10:30:26.835Z,19.38
2023-05-08T10:32:56.522Z,19.48
2023-05-08T10:35:25.370Z,19.49
2023-05-08T10:37:53.511Z,19.64
2023-05-08T10:40:21.391Z,19.63
2023-05-08T10:42:48.403Z,19.61
2023-05-08T10:45:15.352Z,19.69
2023-05-08T10:48:11.151Z,19.86
2023-05-08T10:50:51.360Z,19.75
2023-05-08T10:53:24.811Z,19.56
2023-05-08T10:55:52.408Z,19.28
2023-05-08T10:58:32.106Z,19.10
2023-05-08T11:01:07.268Z,18.98
2023-05-08T11:03:44.829Z,18.86
2023-05-08T11:06:12.003Z,18.71
2023-05-08T11:08:50.153Z,18.71
2023-05-08T11:11:38.195Z,18.71
2023-05-08T11:14:07.481Z,18.75
2023-05-08T11:17:01.855Z,18.78
2023-05-08T11:19:29.063Z,18.78
2023-05-08T11:22:15.253Z,18.99
2023-05-08T11:25:11.714Z,19.13
2023-05-08T11:27:41.369Z,19.21
2023-05-08T11:30:25.643Z,19.36
2023-05-08T11:32:59.721Z,19.47
2023-05-08T11:35:48.134Z,19.60
2023-05-08T11:38:38.329Z,19.68
2023-05-08T11:41:09.937Z,19.67
2023-05-08T11:43:44.234Z,19.81
2023-05-08T11:46:16.723Z,19.91
2023-05-08T11:48:43.917Z,20.03
2023-05-08T11:51:13.673Z,20.14
2023-05-08T11:53:40.514Z,20.28
2023-05-08T11:56:08.059Z,20.32
2023-05-08T11:58:34.701Z,20.26
2023-05-08T12:01:01.202Z,20.19
2023-05-08T12:03:27.870Z,20.04
2023-05-08T12:05:59.166Z,19.97
2023-05-08T12:08:26.338Z,19.84
2023-05-08T12:10:54.274Z,19.90
2023-05-08T12:13:21.580Z,19.99
2023-05-08T12:15:53.966Z,20.12
2023-05-08T12:18:21.778Z,20.31
2023-05-08T12:20:57.076Z,20.42
2023-05-08T12:23:26.123Z,20.39
2023-05-08T12:25:56.513Z,20.50
2023-05-08T12:28:23.097Z,20.90
2023-05-08T12:30:50.505Z,21.15
2023-05-08T12:33:18.599Z,21.12
2023-05-08T12:35:45.262Z,21.34
2023-05-08T12:38:13.005Z,21.37
2023-05-08T12:40:44.887Z,21.26
2023-05-08T12:43:12.259Z,21.29
2023-05-08T12:45:42.044Z,21.14
2023-05-08T12:48:10.984Z,21.07
2023-05-08T12:50:44.926Z,20.87
2023-05-08T12:53:15.374Z,20.76
2023-05-08T12:55:52.748Z,20.68
2023-05-08T12:58:20.498Z,20.70
2023-05-08T13:00:49.673Z,20.64
2023-05-08T13:03:26.906Z,20.56
2023-05-08T13:05:56.421Z,20.57
2023-05-08T13:08:37.475Z,20.43
2023-05-08T13:11:07.651Z,20.48
2023-05-08T13:13:35.741Z,20.41
2023-05-08T13:16:04.532Z,20.32
2023-05-08T13:18:31.420Z,20.26
2023-05-08T13:20:58.726Z,20.38
2023-05-08T13:23:25.577Z,20.39
2023-05-08T13:25:52.139Z,20.39
2023-05-08T13:28:18.636Z,20.40
2023-05-08T13:30:45.169Z,20.46
2023-05-08T13:33:11.806Z,20.48
2023-05-08T13:35:38.910Z,20.41
2023-05-08T13:38:06.040Z,20.48
2023-05-08T13:40:32.742Z,20.53
2023-05-08T13:42:59.221Z,20.50
2023-05-08T13:45:25.819Z,20.63
2023-05-08T13:47:52.440Z,20.71
2023-05-08T13:50:22.181Z,20.75
2023-05-08T13:52:49.688Z,20.94
2023-05-08T13:55:17.895Z,20.86
2023-05-08T13:57:44.675Z,21.05
2023-05-08T14:00:11.780Z,21.05
2023-05-08T14:02:38.466Z,21.14
2023-05-08T14:05:07.274Z,21.16
2023-05-08T14:07:34.222Z,21.25
2023-05-08T14:10:00.832Z,21.33
2023-05-08T14:12:27.334Z,21.42
2023-05-08T14:14:53.842Z,21.46
2023-05-08T14:17:20.433Z,21.48
2023-05-08T14:19:46.900Z,21.53
2023-05-08T14:22:13.376Z,21.72
2023-05-08T14:24:39.988Z,21.84
2023-05-08T14:27:06.553Z,21.92
2023-05-08T14:29:35.999Z,21.83
2023-05-08T14:32:02.709Z,21.61
2023-05-08T14:34:29.302Z,21.50
2023-05-08T14:36:56.148Z,21.61
2023-05-08T14:39:22.644Z,21.56
2023-05-08T14:42:13.710Z,21.55
2023-05-08T14:44:35.734Z,21.50
2023-05-08T14:47:02.221Z,21.58
2023-05-08T14:49:37.602Z,21.49
2023-05-08T14:52:06.250Z,21.60
2023-05-08T14:54:33.034Z,21.59
2023-05-08T14:56:59.838Z,21.54
2023-05-08T14:59:26.507Z,21.50
2023-05-08T15:01:53.129Z,21.45
2023-05-08T15:04:19.763Z,21.56
2023-05-08T15:06:46.399Z,21.64
2023-05-08T15:09:12.877Z,21.71
2023-05-08T15:11:39.435Z,21.71
2023-05-08T15:14:06.180Z,21.80
2023-05-08T15:16:32.715Z,21.94
2023-05-08T15:18:59.247Z,22.07
2023-05-08T15:21:26.823Z,22.32
2023-05-08T15:23:56.282Z,22.21
2023-05-08T15:26:23.149Z,22.29
2023-05-08T15:28:49.888Z,22.24
2023-05-08T15:31:17.216Z,21.87
2023-05-08T15:33:45.180Z,21.96
2023-05-08T15:36:15.600Z,21.90
2023-05-08T15:38:42.874Z,21.86
2023-05-08T15:41:14.736Z,21.79
2023-05-08T15:43:42.297Z,21.96
2023-05-08T15:46:08.973Z,21.84
2023-05-08T15:48:35.587Z,21.69
2023-05-08T15:51:02.144Z,21.71
2023-05-08T15:53:28.757Z,21.78
2023-05-08T15:55:56.936Z,21.52
2023-05-08T15:58:23.727Z,21.60
2023-05-08T16:00:50.343Z,21.53
2023-05-08T16:03:17.256Z,21.60
2023-05-08T16:05:44.082Z,21.45
2023-05-08T16:08:12.848Z,21.33
2023-05-08T16:10:40.788Z,21.27
2023-05-08T16:13:07.751Z,21.31
2023-05-08T16:15:34.416Z,21.36
2023-05-08T16:18:00.989Z,21.09
2023-05-08T16:20:27.577Z,21.20
2023-05-08T16:22:57.404Z,21.22
2023-05-08T16:25:24.336Z,21.28
2023-05-08T16:27:51.350Z,21.13
2023-05-08T16:30:18.275Z,20.96
2023-05-08T16:32:46.086Z,20.91
2023-05-08T16:35:12.992Z,20.85
2023-05-08T16:37:40.204Z,20.79
2023-05-08T16:40:08.512Z,20.72
2023-05-08T16:42:35.282Z,20.74
2023-05-08T16:45:02.105Z,20.64
2023-05-08T16:47:28.563Z,20.70
2023-05-08T16:49:55.417Z,20.71
2023-05-08T16:52:21.908Z,20.67
2023-05-08T16:54:48.388Z,20.73
2023-05-08T16:57:14.953Z,20.74
2023-05-08T16:59:41.453Z,20.81
2023-05-08T17:02:07.987Z,20.82
2023-05-08T17:04:34.541Z,20.81
2023-05-08T17:07:01.068Z,20.72
2023-05-08T17:09:27.893Z,20.72
2023-05-08T17:11:54.400Z,20.67
2023-05-08T17:14:21.013Z,20.65
2023-05-08T17:16:47.635Z,20.66
2023-05-08T17:19:14.140Z,20.55
2023-05-08T17:21:40.658Z,20.57
2023-05-08T17:24:07.450Z,20.63
2023-05-08T17:26:34.141Z,20.54
2023-05-08T17:29:00.725Z,20.31
2023-05-08T17:31:27.640Z,19.82
2023-05-08T17:33:54.173Z,19.54
2023-05-08T17:36:20.763Z,19.53
2023-05-08T17:38:47.479Z,19.23
2023-05-08T17:41:14.434Z,18.70
2023-05-08T17:43:40.929Z,19.00
2023-05-08T17:46:07.778Z,18.86
2023-05-08T17:48:34.562Z,18.75
2023-05-08T17:51:02.786Z,18.81
2023-05-08T17:53:32.858Z,18.75
2023-05-08T17:55:59.311Z,18.67
2023-05-08T17:58:25.991Z,18.69
2023-05-08T18:00:53.956Z,18.60
2023-05-08T18:03:20.704Z,18.54
2023-05-08T18:05:47.499Z,18.40
2023-05-08T18:08:13.961Z,18.46
2023-05-08T18:10:40.907Z,18.26
2023-05-08T18:13:07.839Z,18.28
2023-05-08T18:15:38.893Z,18.28
2023-05-08T18:18:05.518Z,18.24
2023-05-08T18:20:32.251Z,18.19
2023-05-08T18:22:58.721Z,18.09
2023-05-08T18:25:25.210Z,18.07
2023-05-08T18:27:51.831Z,18.07
2023-05-08T18:30:18.292Z,18.08
2023-05-08T18:32:44.838Z,18.05
2023-05-08T18:35:11.543Z,17.98
2023-05-08T18:37:38.120Z,18.00
2023-05-08T18:40:05.129Z,17.99
2023-05-08T18:42:31.573Z,17.93
2023-05-08T18:45:00.268Z,17.89
2023-05-08T18:47:26.819Z,17.77
2023-05-08T18:49:53.398Z,17.84
2023-05-08T18:52:19.852Z,17.80
2023-05-08T18:54:46.362Z,17.74
2023-05-08T18:57:12.800Z,17.58
2023-05-08T18:59:39.297Z,17.56
2023-05-08T19:02:05.783Z,17.45
2023-05-08T19:04:32.260Z,17.34
2023-05-08T19:06:58.850Z,17.33
2023-05-08T19:09:25.309Z,17.36
2023-05-08T19:11:51.747Z,17.22
2023-05-08T19:14:18.183Z,17.13
2023-05-08T19:16:44.784Z,17.12
2023-05-08T19:19:11.398Z,17.03
2023-05-08T19:21:38.071Z,16.92
2023-05-08T19:24:04.879Z,16.86
2023-05-08T19:26:31.329Z,16.77
2023-05-08T19:28:57.858Z,16.96
2023-05-08T19:31:24.429Z,17.01
2023-05-08T19:33:50.966Z,17.00
2023-05-08T19:36:18.436Z,17.03
2023-05-08T19:38:44.934Z,17.00
2023-05-08T19:41:11.745Z,16.93
2023-05-08T19:43:38.163Z,16.82
2023-05-08T19:46:04.777Z,16.96
2023-05-08T19:48:31.341Z,16.98
2023-05-08T19:51:04.862Z,16.82
2023-05-08T19:53:31.320Z,16.81
2023-05-08T19:55:57.821Z,16.67
2023-05-08T19:58:24.514Z,16.55
2023-05-08T20:00:51.532Z,16.57
2023-05-08T20:03:18.788Z,16.50
2023-05-08T20:05:45.633Z,16.37
2023-05-08T20:08:12.134Z,16.33
2023-05-08T20:10:38.612Z,16.25
2023-05-08T20:13:05.614Z,16.26
2023-05-08T20:15:32.138Z,16.39
2023-05-08T20:17:59.635Z,16.26
2023-05-08T20:20:27.204Z,16.24
2023-05-08T20:22:53.691Z,16.13
2023-05-08T20:25:20.211Z,16.22
2023-05-08T20:27:46.907Z,16.11
2023-05-08T20:30:13.828Z,16.08
2023-05-08T20:32:40.631Z,16.02
2023-05-08T20:35:07.690Z,16.05
2023-05-08T20:37:34.898Z,15.88
2023-05-08T20:40:04.682Z,16.00
2023-05-08T20:42:31.139Z,16.03
2023-05-08T20:44:57.652Z,15.92
2023-05-08T20:47:24.131Z,15.87
2023-05-08T20:49:50.656Z,15.90
2023-05-08T20:52:17.165Z,16.01
2023-05-08T20:54:45.485Z,15.95
2023-05-08T20:57:12.996Z,15.85
2023-05-08T20:59:39.445Z,15.81
2023-05-08T21:02:06.010Z,15.84
2023-05-08T21:04:32.552Z,15.70
2023-05-08T21:06:59.156Z,15.70
2023-05-08T21:09:25.596Z,15.72
2023-05-08T21:11:52.161Z,15.85
2023-05-08T21:14:18.665Z,15.85
2023-05-08T21:16:45.130Z,15.91
2023-05-08T21:19:13.898Z,15.91
2023-05-08T21:21:40.637Z,15.80
2023-05-08T21:24:07.230Z,15.71
2023-05-08T21:26:33.767Z,15.94
2023-05-08T21:29:01.938Z,15.96
2023-05-08T21:31:28.894Z,16.05
2023-05-08T21:33:55.575Z,16.10
2023-05-08T21:36:22.165Z,16.08
2023-05-08T21:38:48.680Z,16.02
2023-05-08T21:41:15.116Z,16.00
2023-05-08T21:43:41.629Z,16.06
2023-05-08T21:46:09.207Z,16.01
2023-05-08T21:48:36.558Z,15.96
2023-05-08T21:51:03.159Z,15.84
2023-05-08T21:53:29.684Z,15.85
2023-05-08T21:55:56.180Z,15.66
2023-05-08T21:58:22.726Z,15.77
2023-05-08T22:00:49.264Z,15.79
2023-05-08T22:03:15.983Z,15.77
2023-05-08T22:05:42.498Z,15.70
2023-05-08T22:08:08.969Z,15.70
2023-05-08T22:10:35.768Z,15.74
2023-05-08T22:13:02.951Z,15.65
2023-05-08T22:15:30.800Z,15.52
2023-05-08T22:17:58.165Z,15.37
2023-05-08T22:20:24.949Z,15.26
2023-05-08T22:22:51.425Z,15.18
2023-05-08T22:25:18.082Z,15.14
2023-05-08T22:27:44.995Z,15.24
2023-05-08T22:30:11.661Z,15.42
2023-05-08T22:32:38.195Z,15.41
2023-05-08T22:35:05.681Z,15.20
2023-05-08T22:37:32.216Z,15.23
2023-05-08T22:39:58.702Z,15.22
2023-05-08T22:42:25.539Z,15.13
2023-05-08T22:44:52.197Z,15.27
2023-05-08T22:47:18.775Z,15.34
2023-05-08T22:49:45.347Z,15.36
2023-05-08T22:52:11.841Z,15.21
2023-05-08T22:54:38.302Z,15.10
2023-05-08T22:57:04.804Z,15.09
2023-05-08T22:59:31.382Z,14.97
2023-05-08T23:01:57.989Z,14.76
2023-05-08T23:04:24.584Z,14.68
2023-05-08T23:06:51.265Z,14.68
2023-05-08T23:09:17.739Z,14.71
2023-05-08T23:11:44.393Z,14.90
2023-05-08T23:14:10.894Z,14.95
2023-05-08T23:16:37.424Z,15.01
2023-05-08T23:19:04.574Z,14.94
2023-05-08T23:21:32.161Z,14.85
2023-05-08T23:23:59.066Z,14.60
2023-05-08T23:26:26.102Z,14.58
2023-05-08T23:28:52.746Z,14.53
2023-05-08T23:31:19.329Z,14.46
2023-05-08T23:33:45.940Z,14.37
2023-05-08T23:36:12.381Z,14.22
2023-05-08T23:38:38.823Z,14.20
2023-05-08T23:41:05.291Z,14.23
2023-05-08T23:43:32.043Z,14.21
2023-05-08T23:45:58.523Z,14.23
2023-05-08T23:48:25.810Z,14.29
2023-05-08T23:50:52.408Z,14.32
2023-05-08T23:53:19.013Z,14.35
2023-05-08T23:55:45.505Z,14.36
2023-05-08T23:58:12.021Z,14.40
